Time;durP1;ratioP1;P1;durP2;ratioP2;P2;SDS_P1;SDS_P2;PMS_P1;PMS_P2;Temp;Humidity;BMP_temperature;BMP_pressure;BME280_temperature;BME280_humidity;BME280_pressure;Samples;Min_cycle;Max_cycle;Signal;HPM_P1;HPM_P2
2021/12/28 00:01:16;;;;;;;7.40;3.50;;;;;;;;;;5047284;28;20029;-64
2021/12/28 00:03:43;;;;;;;7.67;2.27;;;;;;;;;;5034716;28;20029;-64
2021/12/28 00:06:11;;;;;;;4.70;2.00;;;;;;;;;;5033389;28;20052;-62
2021/12/28 00:08:38;;;;;;;8.03;2.33;;;;;;;;;;5034568;28;20136;-62
2021/12/28 00:11:06;;;;;;;5.70;2.20;;;;;;;;;;5034645;28;20022;-63
2021/12/28 00:13:33;;;;;;;7.93;2.47;;;;;;;;;;5028975;28;20017;-64
2021/12/28 00:18:35;;;;;;;4.67;2.17;;;;;;;;;;5027794;28;20091;-63
2021/12/28 00:21:04;;;;;;;9.17;2.20;;;;;;;;;;5029145;28;20262;-63
2021/12/28 00:23:37;;;;;;;6.23;2.50;;;;;;;;;;5033712;28;20033;-63
2021/12/28 00:26:05;;;;;;;5.57;2.30;;;;;;;;;;5034405;28;20040;-63
2021/12/28 00:28:33;;;;;;;5.97;2.50;;;;;;;;;;5034057;28;20037;-63
2021/12/28 00:31:00;;;;;;;6.33;2.10;;;;;;;;;;5034148;28;20451;-64
2021/12/28 00:33:28;;;;;;;4.27;2.30;;;;;;;;;;5033777;28;20083;-63
2021/12/28 00:35:55;;;;;;;7.60;3.20;;;;;;;;;;5028606;28;20121;-64
2021/12/28 00:38:24;;;;;;;4.23;2.27;;;;;;;;;;5028555;28;20053;-64
2021/12/28 00:40:52;;;;;;;6.03;2.30;;;;;;;;;;5028889;28;20096;-63
2021/12/28 00:43:20;;;;;;;3.83;2.33;;;;;;;;;;5028782;28;20492;-64
2021/12/28 00:45:47;;;;;;;5.10;2.50;;;;;;;;;;5033226;28;20029;-63
2021/12/28 00:48:15;;;;;;;7.00;1.97;;;;;;;;;;5033213;28;20519;-63
2021/12/28 00:50:42;;;;;;;7.03;2.60;;;;;;;;;;5033602;28;20060;-63
2021/12/28 00:53:10;;;;;;;5.03;2.30;;;;;;;;;;5033694;28;20414;-64
2021/12/28 00:55:37;;;;;;;5.77;2.43;;;;;;;;;;5033581;28;20069;-63
2021/12/28 00:58:05;;;;;;;3.70;2.20;;;;;;;;;;5034424;28;20028;-64
2021/12/28 01:00:34;;;;;;;4.90;1.80;;;;;;;;;;5028555;28;20067;-63
2021/12/28 01:03:01;;;;;;;10.00;2.33;;;;;;;;;;5028097;28;20052;-63
2021/12/28 01:05:29;;;;;;;11.40;3.00;;;;;;;;;;5028014;28;20025;-63
2021/12/28 01:07:56;;;;;;;6.20;3.07;;;;;;;;;;5032303;28;20112;-63
2021/12/28 01:10:28;;;;;;;9.13;2.40;;;;;;;;;;5033248;28;20037;-63
2021/12/28 01:12:55;;;;;;;5.27;2.60;;;;;;;;;;5033537;28;20543;-63
2021/12/28 01:15:24;;;;;;;4.27;2.67;;;;;;;;;;5032939;28;20029;-63
2021/12/28 01:17:51;;;;;;;6.47;2.63;;;;;;;;;;5031921;28;20491;-64
2021/12/28 01:20:18;;;;;;;4.27;2.50;;;;;;;;;;5028562;28;20073;-65
2021/12/28 01:22:46;;;;;;;11.50;3.60;;;;;;;;;;5027994;28;20022;-63
2021/12/28 01:25:13;;;;;;;9.43;2.73;;;;;;;;;;5027673;28;20090;-63
2021/12/28 01:27:40;;;;;;;7.60;2.60;;;;;;;;;;5027754;28;20601;-63
2021/12/28 01:30:08;;;;;;;5.60;3.07;;;;;;;;;;5031785;28;20096;-64
2021/12/28 01:32:36;;;;;;;5.80;2.50;;;;;;;;;;5032696;28;20037;-63
2021/12/28 01:35:04;;;;;;;4.13;2.60;;;;;;;;;;5032548;28;20477;-63
2021/12/28 01:37:31;;;;;;;4.17;2.20;;;;;;;;;;5032973;28;20468;-63
2021/12/28 01:39:58;;;;;;;3.70;2.20;;;;;;;;;;5032960;28;20037;-63
2021/12/28 01:42:28;;;;;;;3.50;2.10;;;;;;;;;;5028352;28;20017;-63
2021/12/28 01:44:56;;;;;;;6.70;1.70;;;;;;;;;;5026983;28;20027;-63
2021/12/28 01:47:23;;;;;;;3.83;2.10;;;;;;;;;;5027339;28;20053;-63
2021/12/28 01:49:51;;;;;;;3.53;1.57;;;;;;;;;;5027430;28;20053;-64
2021/12/28 01:52:21;;;;;;;5.93;2.00;;;;;;;;;;5031186;28;20030;-63
2021/12/28 01:54:51;;;;;;;2.83;1.77;;;;;;;;;;5032374;28;20116;-63
2021/12/28 01:57:19;;;;;;;4.30;1.80;;;;;;;;;;5038478;28;20100;-63
2021/12/28 01:59:51;;;;;;;2.90;1.70;;;;;;;;;;5052558;28;20112;-63
2021/12/28 02:02:19;;;;;;;5.00;1.87;;;;;;;;;;5052497;28;20029;-63
2021/12/28 02:04:54;;;;;;;6.33;2.20;;;;;;;;;;5038092;28;20025;-63
2021/12/28 02:07:22;;;;;;;4.27;2.17;;;;;;;;;;5027223;28;20037;-63
2021/12/28 02:09:49;;;;;;;10.77;2.43;;;;;;;;;;5027374;28;20406;-63
2021/12/28 02:12:19;;;;;;;7.67;2.13;;;;;;;;;;5026859;28;20025;-63
2021/12/28 02:14:49;;;;;;;8.20;2.37;;;;;;;;;;5016417;28;20123;-63
2021/12/28 02:17:17;;;;;;;6.33;2.20;;;;;;;;;;5021705;28;20033;-62
2021/12/28 02:19:45;;;;;;;5.00;2.20;;;;;;;;;;5023647;28;20018;-63
2021/12/28 02:22:14;;;;;;;9.67;2.77;;;;;;;;;;5031554;28;20033;-63
2021/12/28 02:24:46;;;;;;;6.90;1.93;;;;;;;;;;5012711;28;20028;-63
2021/12/28 02:27:14;;;;;;;7.90;2.40;;;;;;;;;;5007388;28;20026;-63
2021/12/28 02:29:41;;;;;;;9.27;2.53;;;;;;;;;;5007152;28;20054;-62
2021/12/28 02:32:08;;;;;;;5.07;2.20;;;;;;;;;;5007357;28;20022;-62
2021/12/28 02:34:35;;;;;;;4.40;2.10;;;;;;;;;;5026280;28;20041;-63
2021/12/28 02:37:02;;;;;;;6.27;1.87;;;;;;;;;;5030930;28;20030;-63
2021/12/28 02:39:29;;;;;;;5.83;2.77;;;;;;;;;;5032119;28;20420;-62
2021/12/28 02:41:55;;;;;;;7.83;2.40;;;;;;;;;;5031630;28;20112;-62
2021/12/28 02:44:22;;;;;;;4.37;2.00;;;;;;;;;;5032073;28;20024;-63
2021/12/28 02:46:49;;;;;;;4.87;2.30;;;;;;;;;;5031527;28;20460;-63
2021/12/28 02:49:16;;;;;;;5.90;2.50;;;;;;;;;;5027867;28;20037;-63
2021/12/28 02:51:43;;;;;;;11.33;2.63;;;;;;;;;;5026369;28;20079;-63
2021/12/28 02:54:10;;;;;;;5.17;2.57;;;;;;;;;;5026709;28;20481;-63
2021/12/28 02:56:37;;;;;;;6.10;2.50;;;;;;;;;;5026441;28;20028;-63
2021/12/28 02:59:04;;;;;;;5.50;2.40;;;;;;;;;;5049762;28;20021;-63
2021/12/28 03:01:31;;;;;;;6.20;2.33;;;;;;;;;;5052109;28;20029;-62
2021/12/28 03:04:04;;;;;;;3.97;1.63;;;;;;;;;;5051958;28;20150;-62
2021/12/28 03:06:31;;;;;;;3.90;2.40;;;;;;;;;;5037319;28;20555;-64
2021/12/28 03:08:58;;;;;;;9.57;2.50;;;;;;;;;;5031366;28;20029;-63
2021/12/28 03:11:26;;;;;;;6.23;2.43;;;;;;;;;;5027578;28;20029;-63
2021/12/28 03:13:54;;;;;;;4.60;2.17;;;;;;;;;;5026417;28;20021;-62
2021/12/28 03:16:22;;;;;;;11.13;2.90;;;;;;;;;;5026365;28;20029;-63
2021/12/28 03:18:49;;;;;;;8.50;2.50;;;;;;;;;;5008715;28;20499;-63
2021/12/28 03:21:17;;;;;;;7.20;2.97;;;;;;;;;;5029978;28;20029;-62
2021/12/28 03:23:44;;;;;;;6.87;2.90;;;;;;;;;;5031826;28;20106;-62
2021/12/28 03:26:11;;;;;;;4.53;2.20;;;;;;;;;;5031800;28;20472;-62
2021/12/28 03:28:40;;;;;;;6.43;2.50;;;;;;;;;;5030923;28;20025;-62
2021/12/28 03:31:09;;;;;;;3.77;1.90;;;;;;;;;;5031362;28;20038;-63
2021/12/28 03:33:36;;;;;;;5.37;1.60;;;;;;;;;;5027202;28;20018;-63
2021/12/28 03:36:04;;;;;;;6.37;2.13;;;;;;;;;;5026361;28;20041;-62
2021/12/28 03:38:31;;;;;;;9.00;2.97;;;;;;;;;;5026318;28;20028;-65
2021/12/28 03:40:58;;;;;;;6.70;2.90;;;;;;;;;;5028553;28;20429;-63
2021/12/28 03:43:24;;;;;;;11.27;3.37;;;;;;;;;;5032303;28;20025;-64
2021/12/28 03:45:51;;;;;;;16.23;4.83;;;;;;;;;;5034776;28;20455;-65
2021/12/28 03:48:18;;;;;;;13.60;4.73;;;;;;;;;;5035201;28;20021;-64
2021/12/28 03:50:45;;;;;;;12.70;4.47;;;;;;;;;;5035043;28;20025;-62
2021/12/28 03:53:12;;;;;;;12.90;5.10;;;;;;;;;;5034735;28;20377;-63
2021/12/28 03:55:39;;;;;;;13.17;4.20;;;;;;;;;;5027921;28;20029;-63
2021/12/28 03:58:06;;;;;;;7.73;3.80;;;;;;;;;;5026885;28;20029;-63
2021/12/28 04:00:38;;;;;;;11.40;3.57;;;;;;;;;;5029285;28;20021;-62
2021/12/28 04:03:06;;;;;;;7.80;3.27;;;;;;;;;;5029623;28;20491;-63
2021/12/28 04:05:33;;;;;;;12.00;3.50;;;;;;;;;;5031774;28;20021;-63
2021/12/28 04:08:00;;;;;;;11.33;3.23;;;;;;;;;;5034588;28;20157;-66
2021/12/28 04:10:37;;;;;;;7.03;3.57;;;;;;;;;;5034538;28;20507;-66
2021/12/28 04:13:04;;;;;;;10.07;3.23;;;;;;;;;;5034653;28;20017;-64
2021/12/28 04:15:31;;;;;;;11.67;3.77;;;;;;;;;;5026187;28;20034;-64
2021/12/28 04:17:58;;;;;;;10.80;3.50;;;;;;;;;;5030852;28;20021;-64
2021/12/28 04:20:25;;;;;;;10.20;4.10;;;;;;;;;;5029266;28;20026;-63
2021/12/28 04:22:52;;;;;;;7.67;3.73;;;;;;;;;;5028827;28;20022;-63
2021/12/28 04:25:21;;;;;;;9.23;3.20;;;;;;;;;;5028970;28;20034;-62
2021/12/28 04:27:48;;;;;;;11.43;3.40;;;;;;;;;;5032016;28;20025;-63
2021/12/28 04:30:16;;;;;;;9.10;4.07;;;;;;;;;;5034200;28;20033;-63
2021/12/28 04:32:43;;;;;;;15.03;5.67;;;;;;;;;;5034130;28;20033;-62
2021/12/28 04:35:10;;;;;;;8.77;4.60;;;;;;;;;;5034008;28;20489;-62
2021/12/28 04:37:37;;;;;;;17.73;6.27;;;;;;;;;;5033643;28;20033;-63
2021/12/28 04:40:07;;;;;;;21.33;8.00;;;;;;;;;;5030993;28;20022;-62
2021/12/28 04:42:34;;;;;;;19.77;8.33;;;;;;;;;;5028398;28;20064;-63
2021/12/28 04:45:02;;;;;;;23.33;8.17;;;;;;;;;;5028727;28;20018;-62
2021/12/28 04:47:28;;;;;;;13.90;6.70;;;;;;;;;;5028582;28;20511;-63
2021/12/28 04:49:55;;;;;;;18.40;7.57;;;;;;;;;;5031245;28;20101;-62
2021/12/28 04:52:24;;;;;;;17.53;6.77;;;;;;;;;;5033354;28;20487;-63
2021/12/28 04:54:50;;;;;;;21.33;9.10;;;;;;;;;;5033637;28;20033;-63
2021/12/28 04:57:17;;;;;;;25.90;8.40;;;;;;;;;;5039327;28;20015;-65
2021/12/28 04:59:44;;;;;;;18.27;7.80;;;;;;;;;;5049976;28;20026;-64
2021/12/28 05:02:11;;;;;;;24.37;6.57;;;;;;;;;;5030768;28;20095;-63
2021/12/28 05:04:38;;;;;;;12.87;5.07;;;;;;;;;;5028560;28;20049;-63
2021/12/28 05:07:05;;;;;;;15.23;5.17;;;;;;;;;;5028276;28;20026;-63
2021/12/28 05:09:33;;;;;;;11.67;5.77;;;;;;;;;;5028185;28;20025;-63
2021/12/28 05:12:00;;;;;;;13.10;5.77;;;;;;;;;;5029970;28;20025;-63
2021/12/28 05:14:27;;;;;;;11.33;4.97;;;;;;;;;;5033182;28;20025;-63
2021/12/28 05:16:56;;;;;;;10.60;5.03;;;;;;;;;;5033489;28;20022;-63
2021/12/28 05:19:23;;;;;;;10.43;5.20;;;;;;;;;;5033235;28;20033;-63
2021/12/28 05:21:50;;;;;;;15.93;5.90;;;;;;;;;;5033210;28;20071;-63
2021/12/28 05:24:17;;;;;;;21.27;7.33;;;;;;;;;;5030282;28;20029;-62
2021/12/28 05:26:43;;;;;;;10.67;4.40;;;;;;;;;;5027608;28;20103;-63
2021/12/28 05:29:10;;;;;;;8.73;3.77;;;;;;;;;;5027963;28;20026;-63
2021/12/28 05:31:37;;;;;;;10.37;4.63;;;;;;;;;;5027917;28;20377;-63
2021/12/28 05:34:07;;;;;;;8.50;3.67;;;;;;;;;;5029618;28;20416;-63
2021/12/28 05:36:34;;;;;;;7.37;4.00;;;;;;;;;;5032834;28;20040;-62
2021/12/28 05:39:01;;;;;;;7.50;3.60;;;;;;;;;;5033109;28;20040;-63
2021/12/28 05:41:28;;;;;;;11.33;4.37;;;;;;;;;;5032298;28;20048;-62
2021/12/28 05:43:55;;;;;;;8.47;3.07;;;;;;;;;;5032944;28;20559;-63
2021/12/28 05:46:22;;;;;;;7.80;3.80;;;;;;;;;;5030461;28;20025;-63
2021/12/28 05:48:49;;;;;;;9.00;4.70;;;;;;;;;;5027156;28;20031;-63
2021/12/28 05:51:16;;;;;;;7.43;3.63;;;;;;;;;;5027457;28;20083;-63
2021/12/28 05:53:43;;;;;;;8.90;3.97;;;;;;;;;;5027417;28;20427;-62
2021/12/28 05:56:09;;;;;;;9.27;4.00;;;;;;;;;;5028470;28;20061;-62
2021/12/28 05:58:37;;;;;;;6.67;3.13;;;;;;;;;;5048979;28;20099;-63
2021/12/28 06:01:04;;;;;;;6.90;3.00;;;;;;;;;;5041582;28;20099;-63
2021/12/28 06:03:31;;;;;;;14.63;5.83;;;;;;;;;;5031868;28;20029;-62
2021/12/28 06:05:58;;;;;;;8.83;3.80;;;;;;;;;;5032364;28;20017;-62
2021/12/28 06:08:26;;;;;;;6.07;2.90;;;;;;;;;;5030666;28;20411;-63
2021/12/28 06:10:53;;;;;;;6.83;2.80;;;;;;;;;;5027295;28;20535;-62
2021/12/28 06:13:23;;;;;;;5.80;2.40;;;;;;;;;;5026817;28;20271;-62
2021/12/28 06:15:50;;;;;;;9.13;3.50;;;;;;;;;;5026986;28;20985;-63
2021/12/28 06:18:19;;;;;;;13.53;4.67;;;;;;;;;;5028497;28;20259;-62
2021/12/28 06:20:46;;;;;;;18.87;5.47;;;;;;;;;;5032389;28;20255;-62
2021/12/28 06:23:16;;;;;;;9.23;4.00;;;;;;;;;;5032277;28;20277;-63
2021/12/28 06:25:44;;;;;;;18.63;5.00;;;;;;;;;;5031700;28;20305;-62
2021/12/28 06:28:11;;;;;;;9.43;3.77;;;;;;;;;;5032313;28;20259;-63
2021/12/28 06:30:39;;;;;;;10.00;3.50;;;;;;;;;;5030210;28;20317;-62
2021/12/28 06:33:07;;;;;;;12.43;5.53;;;;;;;;;;5026448;28;20271;-62
2021/12/28 06:35:36;;;;;;;10.17;5.47;;;;;;;;;;5026949;28;20676;-62
2021/12/28 06:38:05;;;;;;;12.47;5.00;;;;;;;;;;5026942;28;21621;-63
2021/12/28 06:40:32;;;;;;;10.37;4.00;;;;;;;;;;5028310;28;20316;-63
2021/12/28 06:42:59;;;;;;;14.17;5.30;;;;;;;;;;5031814;28;20873;-62
2021/12/28 06:45:28;;;;;;;12.10;4.90;;;;;;;;;;5032166;28;20387;-62
2021/12/28 06:47:55;;;;;;;12.83;5.97;;;;;;;;;;5031938;28;20259;-63
2021/12/28 06:50:22;;;;;;;15.67;6.57;;;;;;;;;;5032117;28;20261;-62
2021/12/28 06:52:50;;;;;;;17.00;6.47;;;;;;;;;;5029869;28;20302;-62
2021/12/28 06:55:17;;;;;;;14.00;6.17;;;;;;;;;;5026031;28;20710;-62
2021/12/28 06:57:43;;;;;;;12.10;5.20;;;;;;;;;;5036011;28;20324;-62
2021/12/28 07:00:13;;;;;;;16.63;5.57;;;;;;;;;;5046673;28;20329;-63
2021/12/28 07:02:40;;;;;;;12.97;5.53;;;;;;;;;;5048129;28;20265;-62
2021/12/28 07:05:07;;;;;;;13.43;7.00;;;;;;;;;;5050688;28;20258;-63
2021/12/28 07:07:34;;;;;;;16.47;5.10;;;;;;;;;;5031472;28;20267;-62
2021/12/28 07:10:01;;;;;;;10.57;3.83;;;;;;;;;;5031496;28;20262;-62
2021/12/28 07:12:28;;;;;;;8.33;3.40;;;;;;;;;;5031884;28;20263;-62
2021/12/28 07:14:56;;;;;;;11.60;4.40;;;;;;;;;;5031863;28;20781;-62
2021/12/28 07:17:26;;;;;;;11.80;5.13;;;;;;;;;;5030330;28;20266;-62
2021/12/28 07:19:54;;;;;;;11.53;4.83;;;;;;;;;;5030039;28;20271;-63
2021/12/28 07:22:21;;;;;;;16.13;5.73;;;;;;;;;;5030372;28;20261;-62
2021/12/28 07:24:49;;;;;;;14.80;6.43;;;;;;;;;;5031247;28;20753;-62
2021/12/28 07:27:16;;;;;;;11.93;5.37;;;;;;;;;;5035505;28;21042;-62
2021/12/28 07:29:45;;;;;;;12.53;5.17;;;;;;;;;;5035475;28;20250;-62
2021/12/28 07:32:12;;;;;;;11.53;5.23;;;;;;;;;;5035092;28;20613;-62
2021/12/28 07:34:40;;;;;;;12.97;5.40;;;;;;;;;;5035065;28;20317;-62
2021/12/28 07:37:07;;;;;;;13.53;4.70;;;;;;;;;;5033393;28;20262;-62
2021/12/28 07:39:35;;;;;;;12.10;5.33;;;;;;;;;;5029840;28;20266;-62
2021/12/28 07:42:02;;;;;;;13.03;5.97;;;;;;;;;;5029754;28;20262;-63
2021/12/28 07:44:29;;;;;;;7.57;3.90;;;;;;;;;;5029612;28;20269;-62
2021/12/28 07:46:57;;;;;;;12.90;4.57;;;;;;;;;;5031040;28;20282;-62
2021/12/28 07:49:25;;;;;;;10.37;3.97;;;;;;;;;;5035063;28;20674;-62
2021/12/28 07:51:53;;;;;;;9.37;4.17;;;;;;;;;;5034853;28;20320;-62
2021/12/28 07:54:20;;;;;;;10.70;4.20;;;;;;;;;;5034799;28;20355;-63
2021/12/28 07:56:47;;;;;;;12.07;4.83;;;;;;;;;;5035930;28;20267;-62
2021/12/28 07:59:14;;;;;;;15.77;5.77;;;;;;;;;;5052972;28;20250;-62
2021/12/28 08:01:42;;;;;;;16.67;6.00;;;;;;;;;;5049418;28;20269;-62
2021/12/28 08:04:09;;;;;;;15.73;5.30;;;;;;;;;;5049513;28;20258;-62
2021/12/28 08:06:35;;;;;;;20.90;7.87;;;;;;;;;;5035780;28;20262;-62
2021/12/28 08:09:04;;;;;;;15.73;6.93;;;;;;;;;;5029670;28;20610;-62
2021/12/28 08:11:33;;;;;;;18.70;7.47;;;;;;;;;;5034610;28;20286;-62
2021/12/28 08:14:00;;;;;;;17.17;7.43;;;;;;;;;;5034629;28;20352;-62
2021/12/28 08:16:28;;;;;;;18.63;7.67;;;;;;;;;;5034442;28;20290;-62
2021/12/28 08:18:56;;;;;;;16.77;7.80;;;;;;;;;;5034070;28;20331;-63
2021/12/28 08:21:24;;;;;;;16.27;6.07;;;;;;;;;;5033157;28;20313;-62
2021/12/28 08:23:51;;;;;;;21.17;7.73;;;;;;;;;;5028995;28;20660;-62
2021/12/28 08:26:19;;;;;;;25.27;7.10;;;;;;;;;;5028436;28;21049;-62
2021/12/28 08:28:47;;;;;;;15.20;6.93;;;;;;;;;;5029337;28;20263;-62
2021/12/28 08:31:20;;;;;;;18.60;7.00;;;;;;;;;;5029806;28;20738;-62
2021/12/28 08:33:47;;;;;;;18.87;9.67;;;;;;;;;;5033967;28;20742;-62
2021/12/28 08:36:14;;;;;;;14.00;6.13;;;;;;;;;;5033814;28;20771;-62
2021/12/28 08:38:43;;;;;;;13.90;6.40;;;;;;;;;;5034079;28;20740;-62
2021/12/28 08:41:11;;;;;;;17.87;6.63;;;;;;;;;;5034158;28;20270;-62
2021/12/28 08:43:38;;;;;;;17.50;6.20;;;;;;;;;;5032276;28;20286;-62
2021/12/28 08:46:07;;;;;;;13.47;5.20;;;;;;;;;;5028513;28;20274;-62
2021/12/28 08:48:34;;;;;;;13.20;5.53;;;;;;;;;;5028712;28;20268;-62
2021/12/28 08:51:02;;;;;;;17.53;5.37;;;;;;;;;;5028562;28;20259;-62
2021/12/28 08:53:32;;;;;;;18.47;5.27;;;;;;;;;;5029204;28;20267;-62
2021/12/28 08:56:01;;;;;;;11.30;5.60;;;;;;;;;;5033480;28;20689;-62
2021/12/28 08:58:28;;;;;;;9.40;5.37;;;;;;;;;;5048949;28;20258;-62
2021/12/28 09:00:56;;;;;;;14.07;5.60;;;;;;;;;;5053551;28;20312;-62
2021/12/28 09:03:23;;;;;;;9.60;5.10;;;;;;;;;;5053188;28;20341;-62
2021/12/28 09:05:51;;;;;;;18.13;6.60;;;;;;;;;;5044910;28;20749;-62
2021/12/28 09:08:20;;;;;;;12.07;5.53;;;;;;;;;;5027930;28;20281;-62
2021/12/28 09:10:48;;;;;;;18.80;6.90;;;;;;;;;;5028359;28;20255;-62
2021/12/28 09:13:19;;;;;;;15.63;5.80;;;;;;;;;;5027983;28;20266;-62
2021/12/28 09:15:46;;;;;;;14.23;5.57;;;;;;;;;;5029219;28;20348;-62
2021/12/28 09:18:16;;;;;;;18.60;8.97;;;;;;;;;;5033189;28;20642;-62
2021/12/28 09:20:43;;;;;;;13.20;7.00;;;;;;;;;;5033343;28;20568;-62
2021/12/28 09:23:14;;;;;;;16.40;5.33;;;;;;;;;;5033143;28;20277;-62
2021/12/28 09:25:42;;;;;;;15.77;6.97;;;;;;;;;;5033055;28;20344;-62
2021/12/28 09:28:09;;;;;;;16.60;7.07;;;;;;;;;;5031378;28;20266;-62
2021/12/28 09:30:38;;;;;;;18.57;6.87;;;;;;;;;;5027356;28;20267;-62
2021/12/28 09:33:06;;;;;;;14.47;5.60;;;;;;;;;;5027733;28;20267;-63
2021/12/28 09:35:34;;;;;;;18.47;6.73;;;;;;;;;;5027758;28;20290;-62
2021/12/28 09:38:01;;;;;;;20.03;7.77;;;;;;;;;;5027981;28;20345;-63
2021/12/28 09:40:31;;;;;;;14.03;6.43;;;;;;;;;;5032816;28;20826;-63
2021/12/28 09:42:59;;;;;;;14.83;6.40;;;;;;;;;;5031754;28;20285;-62
2021/12/28 09:45:28;;;;;;;11.90;6.17;;;;;;;;;;5032643;28;20815;-62
2021/12/28 09:47:55;;;;;;;19.33;6.70;;;;;;;;;;5032857;28;20354;-62
2021/12/28 09:50:24;;;;;;;12.17;5.70;;;;;;;;;;5030972;28;20298;-63
2021/12/28 09:52:51;;;;;;;10.53;5.13;;;;;;;;;;5027316;28;20267;-62
2021/12/28 09:55:19;;;;;;;12.50;6.27;;;;;;;;;;5027450;28;20283;-62
2021/12/28 09:57:49;;;;;;;16.47;6.20;;;;;;;;;;5036719;28;20273;-62
2021/12/28 10:00:18;;;;;;;15.87;8.30;;;;;;;;;;5048549;28;20725;-62
2021/12/28 10:02:47;;;;;;;20.30;6.43;;;;;;;;;;5051687;28;20246;-62
2021/12/28 10:05:23;;;;;;;12.40;6.03;;;;;;;;;;5014563;28;20675;-62
2021/12/28 10:07:57;;;;;;;23.87;9.17;;;;;;;;;;5012824;28;20272;-62
2021/12/28 10:10:28;;;;;;;21.07;8.03;;;;;;;;;;5012638;28;20255;-62
2021/12/28 10:13:04;;;;;;;22.83;9.33;;;;;;;;;;5010289;28;20612;-62
2021/12/28 10:15:31;;;;;;;;;;;;;;;;;;5008174;28;21890;-64
2021/12/28 10:18:01;;;;;;;13.63;7.23;;;;;;;;;;5027156;28;19958;-62
2021/12/28 10:20:29;;;;;;;14.00;5.67;;;;;;;;;;5026611;28;20338;-61
2021/12/28 10:23:02;;;;;;;19.57;7.67;;;;;;;;;;5029153;28;20277;-62
2021/12/28 10:25:32;;;;;;;15.63;5.50;;;;;;;;;;5032373;28;20259;-62
2021/12/28 10:28:03;;;;;;;14.80;6.50;;;;;;;;;;5032197;28;20254;-62
2021/12/28 10:30:33;;;;;;;11.33;4.83;;;;;;;;;;5032088;28;20258;-62
2021/12/28 10:33:03;;;;;;;15.53;6.83;;;;;;;;;;5012024;28;20294;-62
2021/12/28 10:35:37;;;;;;;18.30;6.50;;;;;;;;;;5010299;28;20287;-62
2021/12/28 10:38:07;;;;;;;14.98;5.90;;;;;;;;;;5026894;28;20258;-62
2021/12/28 10:40:37;;;;;;;11.97;4.33;;;;;;;;;;5026982;28;20075;-62
2021/12/28 10:43:12;;;;;;;15.83;7.03;;;;;;;;;;5027022;28;20290;-62
2021/12/28 10:45:42;;;;;;;13.50;5.87;;;;;;;;;;5030200;28;20286;-62
2021/12/28 10:48:10;;;;;;;10.80;4.97;;;;;;;;;;5031907;28;20810;-62
2021/12/28 10:50:39;;;;;;;8.87;4.67;;;;;;;;;;5035565;28;20726;-62
2021/12/28 10:53:12;;;;;;;8.70;4.13;;;;;;;;;;5036119;28;20606;-62
2021/12/28 10:55:40;;;;;;;7.00;3.53;;;;;;;;;;5035419;28;20370;-62
2021/12/28 10:58:11;;;;;;;10.70;5.57;;;;;;;;;;5037750;28;20348;-62
2021/12/28 11:00:43;;;;;;;11.43;5.30;;;;;;;;;;5030988;28;20307;-62
2021/12/28 11:03:15;;;;;;;11.60;4.47;;;;;;;;;;5030542;28;20308;-62
2021/12/28 11:05:45;;;;;;;7.80;4.50;;;;;;;;;;5030112;28;20278;-62
2021/12/28 11:08:12;;;;;;;6.83;3.53;;;;;;;;;;5034898;28;20255;-62
2021/12/28 11:10:44;;;;;;;9.40;4.50;;;;;;;;;;5035733;28;20386;-62
2021/12/28 11:13:14;;;;;;;10.60;5.20;;;;;;;;;;5035724;28;20373;-62
2021/12/28 11:15:46;;;;;;;12.67;6.13;;;;;;;;;;5035387;28;20369;-62
2021/12/28 11:18:20;;;;;;;12.57;6.07;;;;;;;;;;5035334;28;20353;-62
2021/12/28 11:20:48;;;;;;;11.63;5.87;;;;;;;;;;5030235;28;20346;-62
2021/12/28 11:23:20;;;;;;;11.63;4.90;;;;;;;;;;5029852;28;20278;-62
2021/12/28 11:26:01;;;;;;;8.83;4.40;;;;;;;;;;5030239;28;20262;-63
2021/12/28 11:28:31;;;;;;;10.77;3.87;;;;;;;;;;5029974;28;20262;-61
2021/12/28 11:31:18;;;;;;;11.37;4.97;;;;;;;;;;5035322;28;20271;-61
2021/12/28 11:33:49;;;;;;;12.23;3.77;;;;;;;;;;5035224;28;20613;-62
2021/12/28 11:36:17;;;;;;;9.63;4.23;;;;;;;;;;5035224;28;20366;-62
2021/12/28 11:38:46;;;;;;;10.03;5.90;;;;;;;;;;5034915;28;20266;-61
2021/12/28 11:41:14;;;;;;;7.80;4.00;;;;;;;;;;5033218;28;20281;-62
2021/12/28 11:43:42;;;;;;;7.47;4.40;;;;;;;;;;5029676;28;20266;-61
2021/12/28 11:46:11;;;;;;;10.03;4.23;;;;;;;;;;5029674;28;20354;-62
2021/12/28 11:48:38;;;;;;;7.80;4.40;;;;;;;;;;5029697;28;20331;-61
2021/12/28 11:51:05;;;;;;;8.27;3.37;;;;;;;;;;5030822;28;20369;-62
2021/12/28 11:53:36;;;;;;;6.50;4.10;;;;;;;;;;5035006;28;20259;-62
2021/12/28 11:56:04;;;;;;;8.13;3.83;;;;;;;;;;5034145;28;20298;-63
2021/12/28 11:58:50;;;;;;;6.97;3.37;;;;;;;;;;5050558;28;20269;-61
2021/12/28 12:01:39;;;;;;;10.13;5.23;;;;;;;;;;5052997;28;20301;-63
2021/12/28 12:04:34;;;;;;;10.33;4.07;;;;;;;;;;5030370;28;20336;-62
2021/12/28 12:07:12;;;;;;;8.97;4.03;;;;;;;;;;5027730;28;20266;-63
2021/12/28 12:09:53;;;;;;;8.20;4.60;;;;;;;;;;5029539;28;20259;-62
2021/12/28 12:12:23;;;;;;;7.83;4.43;;;;;;;;;;5029880;28;20251;-62
2021/12/28 12:14:58;;;;;;;9.30;4.00;;;;;;;;;;5033630;28;20381;-62
2021/12/28 12:17:27;;;;;;;7.53;4.15;;;;;;;;;;5034579;28;20671;-61
2021/12/28 12:19:57;;;;;;;6.23;3.53;;;;;;;;;;5034505;28;20026;-61
2021/12/28 12:22:32;;;;;;;11.47;4.07;;;;;;;;;;5034785;28;20680;-62
2021/12/28 12:24:59;;;;;;;4.75;2.85;;;;;;;;;;5033869;28;20243;-63
2021/12/28 12:27:45;;;;;;;7.33;3.90;;;;;;;;;;5028401;28;20033;-62
2021/12/28 12:30:20;;;;;;;6.50;3.57;;;;;;;;;;5029105;28;20251;-62
2021/12/28 12:32:48;;;;;;;;;;;;;;;;;;5029586;28;20266;-62
2021/12/28 12:35:44;;;;;;;15.13;4.70;;;;;;;;;;5029669;28;20261;-62
2021/12/28 12:38:18;;;;;;;7.00;4.97;;;;;;;;;;5033290;28;20366;-62
2021/12/28 12:41:05;;;;;;;6.10;3.13;;;;;;;;;;5033863;28;20266;-61
2021/12/28 12:43:40;;;;;;;6.97;4.07;;;;;;;;;;5033884;28;20254;-62
2021/12/28 12:46:09;;;;;;;;;;;;;;;;;;5034648;28;20265;-61
2021/12/28 12:48:40;;;;;;;10.63;4.57;;;;;;;;;;5030160;28;19909;-63
2021/12/28 12:51:29;;;;;;;9.73;3.83;;;;;;;;;;5027935;28;20354;-61
2021/12/28 12:54:01;;;;;;;12.00;4.07;;;;;;;;;;5028277;28;20320;-62
2021/12/28 12:56:31;;;;;;;9.13;4.00;;;;;;;;;;5028406;28;20287;-62
2021/12/28 12:59:03;;;;;;;8.33;4.80;;;;;;;;;;5052182;28;20253;-61
2021/12/28 13:01:36;;;;;;;11.00;5.57;;;;;;;;;;5053657;28;20250;-62
2021/12/28 13:04:04;;;;;;;9.67;4.63;;;;;;;;;;5040174;28;20270;-62
2021/12/28 13:06:40;;;;;;;8.67;3.87;;;;;;;;;;5033454;28;20261;-63
2021/12/28 13:09:08;;;;;;;11.97;4.60;;;;;;;;;;5033569;28;20267;-61
2021/12/28 13:11:36;;;;;;;6.23;3.70;;;;;;;;;;5027728;28;20262;-61
2021/12/28 13:14:03;;;;;;;8.20;4.23;;;;;;;;;;5028100;28;20277;-61
2021/12/28 13:16:30;;;;;;;8.87;4.53;;;;;;;;;;5027912;28;20298;-62
2021/12/28 13:19:12;;;;;;;12.63;4.67;;;;;;;;;;5027987;28;20379;-61
2021/12/28 13:21:41;;;;;;;11.97;4.60;;;;;;;;;;5032183;28;20609;-61
2021/12/28 13:24:12;;;;;;;9.40;4.83;;;;;;;;;;5033259;28;20258;-63
2021/12/28 13:26:46;;;;;;;11.57;4.30;;;;;;;;;;5013288;28;20343;-62
2021/12/28 13:29:23;;;;;;;7.67;3.83;;;;;;;;;;5013499;28;20263;-61
2021/12/28 13:31:51;;;;;;;10.03;6.27;;;;;;;;;;5011741;28;20256;-61
2021/12/28 13:34:18;;;;;;;9.13;5.53;;;;;;;;;;5007937;28;20358;-63
2021/12/28 13:36:49;;;;;;;10.83;5.30;;;;;;;;;;5008237;28;20271;-62
2021/12/28 13:39:16;;;;;;;10.27;6.03;;;;;;;;;;5007959;28;20264;-61
2021/12/28 13:41:53;;;;;;;9.60;5.13;;;;;;;;;;5017238;28;20386;-61
2021/12/28 13:44:21;;;;;;;11.00;6.27;;;;;;;;;;5032223;28;20325;-62
2021/12/28 13:46:48;;;;;;;16.30;6.80;;;;;;;;;;5032978;28;20259;-62
2021/12/28 13:49:15;;;;;;;13.63;5.43;;;;;;;;;;5032829;28;20255;-62
2021/12/28 13:51:42;;;;;;;17.83;6.43;;;;;;;;;;5032590;28;20270;-62
2021/12/28 13:54:10;;;;;;;12.40;6.57;;;;;;;;;;5030982;28;20259;-62
2021/12/28 13:56:38;;;;;;;8.20;5.37;;;;;;;;;;5027116;28;20317;-61
2021/12/28 13:59:14;;;;;;;13.07;6.70;;;;;;;;;;5030854;28;20656;-62
2021/12/28 14:01:43;;;;;;;11.53;6.43;;;;;;;;;;5027133;28;20285;-61
2021/12/28 14:04:16;;;;;;;16.40;6.40;;;;;;;;;;5028948;28;20320;-62
2021/12/28 14:06:50;;;;;;;8.77;5.87;;;;;;;;;;5032369;28;20366;-62
2021/12/28 14:09:23;;;;;;;29.02;15.07;;;;;;;;;;5032245;28;20261;-62
2021/12/28 14:11:54;;;;;;;22.53;11.57;;;;;;;;;;5032437;28;20032;-61
2021/12/28 14:14:27;;;;;;;18.67;10.47;;;;;;;;;;5032076;28;20741;-62
2021/12/28 14:17:05;;;;;;;18.13;7.83;;;;;;;;;;5029593;28;20263;-62
2021/12/28 14:19:32;;;;;;;12.57;7.50;;;;;;;;;;5027388;28;20443;-62
2021/12/28 14:22:00;;;;;;;17.67;8.50;;;;;;;;;;5027231;28;20293;-62
2021/12/28 14:24:31;;;;;;;16.20;8.83;;;;;;;;;;5026456;28;20266;-61
2021/12/28 14:26:58;;;;;;;15.50;9.10;;;;;;;;;;5029944;28;20259;-61
2021/12/28 14:29:29;;;;;;;16.90;9.20;;;;;;;;;;5032136;28;20239;-61
2021/12/28 14:32:00;;;;;;;12.90;8.43;;;;;;;;;;5031798;28;20270;-62
2021/12/28 14:34:38;;;;;;;15.00;8.73;;;;;;;;;;5031997;28;20583;-62
2021/12/28 14:37:10;;;;;;;12.53;7.73;;;;;;;;;;5032191;28;20270;-62
2021/12/28 14:39:41;;;;;;;14.03;8.50;;;;;;;;;;5027894;28;20029;-62
2021/12/28 14:42:08;;;;;;;16.30;9.57;;;;;;;;;;5026667;28;20136;-62
2021/12/28 14:44:36;;;;;;;14.80;8.40;;;;;;;;;;5027176;28;20514;-61
2021/12/28 14:47:10;;;;;;;11.90;7.87;;;;;;;;;;5026350;28;20037;-62
2021/12/28 14:49:37;;;;;;;16.53;8.93;;;;;;;;;;5030147;28;20101;-62